Time;durP1;ratioP1;P1;durP2;ratioP2;P2;SDS_P1;SDS_P2;PMS_P1;PMS_P2;Temp;Humidity;BMP_temperature;BMP_pressure;BME280_temperature;BME280_humidity;BME280_pressure;Samples;Min_cycle;Max_cycle;Signal;HPM_P1;HPM_P2
2022/07/28 00:00:21;;;;;;;1053.40;984.90;;;;;;;17.78;48.10;101463.53;683007;28;67440;-64
2022/07/28 00:00:42;;;;;;;1053.70;985.17;;;;;;;17.82;47.89;101464.81;684309;28;22343;-64
2022/07/28 00:01:04;;;;;;;1053.32;984.78;;;;;;;17.83;47.62;101458.28;684392;28;23565;-64
2022/07/28 00:01:26;;;;;;;1053.20;984.70;;;;;;;17.86;47.99;101465.22;683178;28;46245;-64
2022/07/28 00:01:47;;;;;;;1052.60;984.10;;;;;;;17.88;47.52;101465.88;683817;28;44365;-64
2022/07/28 00:02:08;;;;;;;1048.30;980.10;;;;;;;17.87;47.95;101464.19;685253;28;21434;-65
2022/07/28 00:02:30;;;;;;;1043.18;975.17;;;;;;;17.87;47.84;101463.31;684504;28;23554;-64
2022/07/28 00:02:52;;;;;;;1048.38;980.13;;;;;;;17.85;47.81;101463.53;683442;28;46164;-64
2022/07/28 00:03:13;;;;;;;1048.28;980.08;;;;;;;17.84;47.65;101464.59;683884;28;46278;-65
2022/07/28 00:03:34;;;;;;;1047.10;978.90;;;;;;;17.84;47.54;101470.06;685176;28;21238;-65
2022/07/28 00:03:55;;;;;;;1047.43;979.17;;;;;;;17.82;47.68;101464.81;684450;28;22402;-65
2022/07/28 00:04:18;;;;;;;1048.45;980.15;;;;;;;17.80;47.89;101468.78;684677;28;22406;-65
2022/07/28 00:04:39;;;;;;;1045.47;977.38;;;;;;;17.77;48.00;101470.06;683392;28;69365;-64
2022/07/28 00:05:00;;;;;;;1045.68;977.50;;;;;;;17.76;47.73;101465.63;684210;28;22374;-65
2022/07/28 00:05:21;;;;;;;1046.22;977.95;;;;;;;17.75;47.79;101463.13;683969;28;23490;-65
2022/07/28 00:05:43;;;;;;;1046.63;978.38;;;;;;;17.74;48.15;101467.75;684364;28;21489;-64
2022/07/28 00:06:06;;;;;;;1037.68;970.08;;;;;;;17.73;48.07;101465.22;683834;28;46299;-64
2022/07/28 00:06:27;;;;;;;1040.75;972.95;;;;;;;17.72;47.91;101463.53;682182;28;69320;-64
2022/07/28 00:06:48;;;;;;;1040.45;972.65;;;;;;;17.70;48.25;101455.53;684364;28;21179;-64
2022/07/28 00:07:09;;;;;;;1037.00;969.20;;;;;;;17.70;48.29;101457.44;683703;28;23469;-65
2022/07/28 00:07:34;;;;;;;1039.88;972.03;;;;;;;17.69;48.43;101463.94;684689;28;22171;-65
2022/07/28 00:07:56;;;;;;;1039.22;971.42;;;;;;;17.67;48.36;101461.41;681345;28;113580;-66
2022/07/28 00:08:17;;;;;;;1041.10;973.20;;;;;;;17.62;48.17;101462.03;684682;28;23410;-66
2022/07/28 00:08:38;;;;;;;1043.68;975.75;;;;;;;17.62;48.25;101462.03;684555;28;22457;-66
2022/07/28 00:08:59;;;;;;;1036.10;968.45;;;;;;;17.56;48.32;101451.94;683854;28;45224;-66
2022/07/28 00:09:21;;;;;;;1037.72;970.00;;;;;;;17.60;48.37;101458.69;684705;28;23482;-66
2022/07/28 00:09:43;;;;;;;1037.72;970.03;;;;;;;17.60;48.72;101452.34;683567;28;45059;-66
2022/07/28 00:10:06;;;;;;;1037.40;969.78;;;;;;;17.62;48.38;101463.94;685372;28;22357;-66
2022/07/28 00:10:27;;;;;;;1040.55;972.70;;;;;;;17.58;48.33;101460.75;681871;28;92288;-66
2022/07/28 00:10:49;;;;;;;1041.38;973.47;;;;;;;17.59;48.44;101459.72;683437;28;46172;-65
2022/07/28 00:11:10;;;;;;;1041.93;974.05;;;;;;;17.58;48.79;101459.91;683880;28;44349;-65
2022/07/28 00:11:31;;;;;;;1037.82;970.13;;;;;;;17.55;48.55;101455.69;683943;28;23473;-66
2022/07/28 00:11:54;;;;;;;1039.00;971.25;;;;;;;17.55;48.77;101460.31;684560;28;23479;-65
2022/07/28 00:12:15;;;;;;;1038.90;971.13;;;;;;;17.55;48.55;101460.31;683820;28;46578;-65
2022/07/28 00:12:37;;;;;;;1038.22;970.42;;;;;;;17.55;48.69;101466.63;683496;28;46296;-65
2022/07/28 00:12:58;;;;;;;1040.10;972.25;;;;;;;17.54;48.91;101464.97;684275;28;23679;-65
2022/07/28 00:13:24;;;;;;;1035.55;967.97;;;;;;;17.48;49.49;101463.88;683225;28;59562;-65
2022/07/28 00:13:46;;;;;;;1026.38;959.30;;;;;;;17.49;49.12;101456.53;684222;28;44373;-65
2022/07/28 00:14:07;;;;;;;1020.53;953.83;;;;;;;17.50;49.24;101463.69;684663;28;21563;-66
2022/07/28 00:14:29;;;;;;;1017.63;951.03;;;;;;;17.43;49.21;101455.47;684307;28;23348;-66
2022/07/28 00:14:51;;;;;;;1022.22;955.33;;;;;;;17.51;48.98;101467.22;683483;28;46689;-66
2022/07/28 00:15:12;;;;;;;1023.58;956.58;;;;;;;17.51;48.95;101456.31;683559;28;46284;-65
2022/07/28 00:15:33;;;;;;;1019.95;953.15;;;;;;;17.43;49.40;101458.19;683545;28;44428;-66
2022/07/28 00:15:54;;;;;;;1026.22;959.20;;;;;;;17.46;49.19;101465.13;684406;28;22377;-65
2022/07/28 00:16:16;;;;;;;1024.95;957.90;;;;;;;17.46;49.15;101465.97;684478;28;22202;-66
2022/07/28 00:16:38;;;;;;;1025.35;958.28;;;;;;;17.47;49.05;101470.38;683156;28;44351;-65
2022/07/28 00:16:59;;;;;;;1017.70;950.92;;;;;;;17.48;49.00;101468.50;683869;28;21513;-65
2022/07/28 00:17:20;;;;;;;1015.03;948.35;;;;;;;17.47;49.30;101466.81;684671;28;44262;-65
2022/07/28 00:17:43;;;;;;;1013.53;947.05;;;;;;;17.46;49.18;101463.25;684498;28;23495;-65
2022/07/28 00:18:04;;;;;;;1009.97;943.72;;;;;;;17.46;49.08;101468.72;683707;28;42600;-65
2022/07/28 00:18:25;;;;;;;1016.08;949.58;;;;;;;17.46;49.11;101465.13;684552;28;22254;-66
2022/07/28 00:18:46;;;;;;;1014.22;947.83;;;;;;;17.45;49.61;101463.47;680876;29;22621;-65
2022/07/28 00:19:08;;;;;;;1015.53;949.03;;;;;;;17.44;49.13;101472.69;679879;29;46301;-65
2022/07/28 00:19:30;;;;;;;1018.30;951.70;;;;;;;17.43;49.18;101465.56;679838;29;46319;-66
2022/07/28 00:19:51;;;;;;;1021.13;954.30;;;;;;;17.39;49.15;101459.66;682103;28;21545;-66
2022/07/28 00:20:12;;;;;;;1012.33;945.88;;;;;;;17.41;49.15;101464.91;684545;28;21494;-64
2022/07/28 00:20:35;;;;;;;1008.47;942.22;;;;;;;17.40;49.64;101460.50;683457;28;47228;-65
2022/07/28 00:20:56;;;;;;;1014.78;948.20;;;;;;;17.39;49.25;101458.81;683519;28;44395;-64
2022/07/28 00:21:19;;;;;;;1008.35;942.15;;;;;;;17.39;49.44;101461.53;683983;28;46302;-64
2022/07/28 00:21:40;;;;;;;1017.58;950.97;;;;;;;17.34;49.29;101458.59;683051;28;44388;-64
2022/07/28 00:22:02;;;;;;;1016.63;950.05;;;;;;;17.37;49.47;101455.44;684475;28;21946;-65
2022/07/28 00:22:24;;;;;;;1013.45;947.00;;;;;;;17.37;49.53;101460.91;683176;28;69411;-64
2022/07/28 00:22:45;;;;;;;1026.47;959.33;;;;;;;17.37;49.75;101463.66;684544;28;22387;-64
2022/07/28 00:23:06;;;;;;;1038.50;970.80;;;;;;;17.39;49.67;101469.72;685083;28;21518;-64
2022/07/28 00:23:28;;;;;;;1036.57;968.97;;;;;;;17.37;49.42;101463.66;684497;28;21463;-64
2022/07/28 00:23:50;;;;;;;1040.53;972.65;;;;;;;17.38;49.58;101463.44;682647;28;67464;-64
2022/07/28 00:24:11;;;;;;;1040.43;972.63;;;;;;;17.38;49.62;101468.03;684290;28;21515;-64
2022/07/28 00:24:33;;;;;;;1038.82;971.13;;;;;;;17.34;49.52;101455.88;684864;28;21493;-64
2022/07/28 00:24:55;;;;;;;1038.57;970.75;;;;;;;17.35;49.43;101463.84;683321;28;44361;-64
2022/07/28 00:25:16;;;;;;;1039.32;971.53;;;;;;;17.33;49.49;101463.19;683384;28;46331;-64
2022/07/28 00:25:37;;;;;;;1040.00;972.22;;;;;;;17.33;49.32;101463.19;685263;28;22188;-64
2022/07/28 00:25:59;;;;;;;1038.82;970.95;;;;;;;17.32;49.65;101463.41;683132;28;45104;-65
2022/07/28 00:26:22;;;;;;;1043.45;975.25;;;;;;;17.28;49.97;101457.50;684485;28;22223;-65
2022/07/28 00:26:43;;;;;;;1037.20;969.42;;;;;;;17.22;50.11;101467.34;681433;28;88737;-65
2022/07/28 00:27:05;;;;;;;1037.93;969.97;;;;;;;17.20;50.39;101460.44;683900;28;21582;-64
2022/07/28 00:27:26;;;;;;;1043.18;975.08;;;;;;;17.15;50.40;101465.63;684757;28;18148;-65
2022/07/28 00:27:48;;;;;;;1042.63;974.63;;;;;;;17.16;50.75;101462.69;684569;28;22434;-65
2022/07/28 00:28:10;;;;;;;1044.10;976.10;;;;;;;17.18;50.59;101473.41;683763;28;46222;-64
2022/07/28 00:28:31;;;;;;;1041.43;973.58;;;;;;;17.20;50.17;101463.97;684477;28;22474;-64
2022/07/28 00:28:52;;;;;;;1038.50;970.70;;;;;;;17.23;49.95;101466.31;683347;28;44343;-64
2022/07/28 00:29:14;;;;;;;1035.93;968.22;;;;;;;17.25;49.92;101460.66;684712;28;22388;-64
2022/07/28 00:29:35;;;;;;;1032.05;964.55;;;;;;;17.24;50.18;101468.00;683958;28;46665;-66
2022/07/28 00:29:57;;;;;;;1029.80;962.42;;;;;;;17.20;50.16;101461.25;684589;28;22381;-65
2022/07/28 00:30:18;;;;;;;1030.90;963.53;;;;;;;17.22;50.02;101456.44;684467;28;23469;-64
2022/07/28 00:30:40;;;;;;;1031.47;964.08;;;;;;;17.25;50.07;101466.09;683075;28;46301;-64
2022/07/28 00:31:01;;;;;;;1035.85;968.15;;;;;;;17.19;50.29;101467.75;683487;28;47137;-65
2022/07/28 00:31:23;;;;;;;1036.13;968.42;;;;;;;17.20;50.15;101469.44;683805;28;22400;-64
2022/07/28 00:31:44;;;;;;;1033.18;965.58;;;;;;;17.20;49.88;101458.53;684648;28;23465;-64
2022/07/28 00:32:05;;;;;;;1033.65;966.05;;;;;;;17.22;49.96;101459.16;683724;28;47832;-64
2022/07/28 00:32:28;;;;;;;1033.20;965.70;;;;;;;17.18;49.95;101460.63;684808;28;23454;-64
2022/07/28 00:32:49;;;;;;;1034.82;967.22;;;;;;;17.20;50.18;101463.16;683397;28;44368;-64
2022/07/28 00:33:10;;;;;;;1033.05;965.47;;;;;;;17.19;49.94;101469.66;683650;28;46034;-64
2022/07/28 00:33:31;;;;;;;1029.15;961.80;;;;;;;17.16;50.37;101468.16;684468;28;23473;-64
2022/07/28 00:33:53;;;;;;;1032.97;965.45;;;;;;;17.16;50.13;101459.13;683947;28;21537;-64
2022/07/28 00:34:15;;;;;;;1034.93;967.33;;;;;;;17.16;50.43;101462.69;683875;28;44393;-65
2022/07/28 00:34:36;;;;;;;1030.28;962.97;;;;;;;17.16;50.06;101468.16;684843;28;21543;-66
2022/07/28 00:34:57;;;;;;;1013.67;947.28;;;;;;;17.15;50.06;101462.91;683655;28;46301;-65
2022/07/28 00:35:19;;;;;;;1017.25;950.67;;;;;;;17.13;50.33;101460.38;684068;28;23437;-66
2022/07/28 00:35:40;;;;;;;1008.95;942.75;;;;;;;17.11;50.39;101467.94;683664;28;46085;-66
2022/07/28 00:36:02;;;;;;;1010.47;944.17;;;;;;;17.11;50.42;101467.94;684622;28;23362;-66
2022/07/28 00:36:25;;;;;;;1016.25;949.67;;;;;;;17.10;50.36;101469.00;684613;28;4364;-66
2022/07/28 00:36:47;;;;;;;1020.22;953.53;;;;;;;17.05;50.14;101463.28;683580;28;67469;-65
2022/07/28 00:37:09;;;;;;;1013.25;946.90;;;;;;;17.05;50.30;101468.75;683328;28;45016;-64
2022/07/28 00:37:30;;;;;;;1016.13;949.63;;;;;;;17.03;50.57;101470.84;684565;28;21623;-65
2022/07/28 00:37:51;;;;;;;1016.80;950.30;;;;;;;16.99;50.46;101462.22;683820;28;43703;-64
2022/07/28 00:38:13;;;;;;;1018.58;951.97;;;;;;;17.01;50.24;101470.22;684330;28;22332;-64
2022/07/28 00:38:36;;;;;;;1012.97;946.58;;;;;;;16.99;50.57;101473.13;683396;28;46345;-64
2022/07/28 00:38:57;;;;;;;1019.33;952.67;;;;;;;16.97;50.44;101466.19;683678;28;46307;-64
2022/07/28 00:39:18;;;;;;;1023.08;956.15;;;;;;;16.96;50.23;101469.94;684633;28;22281;-63
2022/07/28 00:39:40;;;;;;;1021.55;954.70;;;;;;;16.95;50.55;101469.13;684852;28;44364;-64
2022/07/28 00:40:02;;;;;;;1020.13;953.33;;;;;;;16.93;50.80;101469.31;684203;28;31950;-64
2022/07/28 00:41:09;;;;;;;1023.65;956.75;;;;;;;16.92;50.79;101466.78;684528;28;22471;-67
2022/07/28 00:41:10;;;;;;;1016.60;949.97;;;;;;;16.90;50.54;101474.34;680467;28;137191;-64
2022/07/28 00:41:38;;;;;;;1018.07;951.30;;;;;;;16.89;50.45;101472.66;679947;28;136309;-64
2022/07/28 00:41:59;;;;;;;1022.47;955.60;;;;;;;16.87;50.81;101469.28;680218;28;138570;-65
2022/07/28 00:42:20;;;;;;;1023.20;956.33;;;;;;;16.86;50.66;101465.69;684617;28;22367;-66
2022/07/28 00:42:41;;;;;;;1020.15;953.33;;;;;;;16.84;50.72;101467.75;683661;28;46378;-66
2022/07/28 00:43:04;;;;;;;1013.15;946.60;;;;;;;16.85;51.15;101465.88;685474;28;955;-65
2022/07/28 00:43:25;;;;;;;1018.63;951.85;;;;;;;16.83;51.09;101476.16;683567;28;45258;-66
2022/07/28 00:43:49;;;;;;;1020.53;953.72;;;;;;;16.83;50.82;101473.41;683855;28;24633;-66
2022/07/28 00:44:10;;;;;;;1018.75;952.05;;;;;;;16.83;50.62;101470.69;682653;28;92384;-65
2022/07/28 00:44:32;;;;;;;1012.63;946.13;;;;;;;16.82;50.97;101469.84;684109;28;23514;-65
2022/07/28 00:44:53;;;;;;;1018.55;951.80;;;;;;;16.83;50.64;101468.78;683227;28;46250;-65
2022/07/28 00:45:14;;;;;;;1015.47;948.87;;;;;;;16.83;50.82;101470.69;684132;28;21292;-63
2022/07/28 00:45:36;;;;;;;1019.20;952.42;;;;;;;16.82;50.65;101469.84;683516;28;46313;-63
2022/07/28 00:45:57;;;;;;;1022.05;955.05;;;;;;;16.82;51.01;101469.84;684464;28;23694;-64
2022/07/28 00:46:22;;;;;;;1021.78;954.88;;;;;;;16.82;51.01;101469.84;684622;28;22152;-64
2022/07/28 00:46:43;;;;;;;1023.90;956.90;;;;;;;16.81;50.95;101470.88;679681;28;133810;-64
2022/07/28 00:47:05;;;;;;;1019.58;952.67;;;;;;;16.81;50.97;101472.78;683901;28;22399;-64
2022/07/28 00:47:26;;;;;;;1015.83;949.15;;;;;;;16.80;51.06;101468.34;683581;28;44363;-64
2022/07/28 00:47:49;;;;;;;1016.60;950.00;;;;;;;16.79;51.02;101470.25;683668;28;45331;-65
2022/07/28 00:48:10;;;;;;;1017.55;950.83;;;;;;;16.75;51.28;101461.63;684401;28;44346;-64
2022/07/28 00:48:31;;;;;;;1008.20;941.92;;;;;;;16.78;51.15;101467.72;684261;28;21539;-64
2022/07/28 00:48:53;;;;;;;1002.65;936.60;;;;;;;16.74;51.57;101467.28;683311;28;44374;-64
2022/07/28 00:49:16;;;;;;;1006.22;940.03;;;;;;;16.70;51.39;101469.56;684739;28;22437;-64
2022/07/28 00:49:38;;;;;;;1003.33;937.22;;;;;;;16.72;51.48;101472.09;682704;28;68376;-64
2022/07/28 00:49:59;;;;;;;1001.95;935.92;;;;;;;16.72;51.17;101472.94;684284;28;31136;-64
2022/07/28 00:50:21;;;;;;;1002.60;936.60;;;;;;;16.72;51.41;101463.91;683505;28;44298;-64
2022/07/28 00:50:42;;;;;;;1006.65;940.53;;;;;;;16.72;51.11;101466.63;684231;28;21323;-64
2022/07/28 00:51:04;;;;;;;1011.70;945.20;;;;;;;16.71;51.45;101463.06;684491;28;22415;-65
2022/07/28 00:51:28;;;;;;;1027.65;960.40;;;;;;;16.75;51.55;101468.97;682325;28;68134;-66
2022/07/28 00:51:49;;;;;;;1021.15;954.20;;;;;;;16.74;51.49;101468.13;682366;28;69431;-66
2022/07/28 00:52:12;;;;;;;1003.45;937.28;;;;;;;16.72;51.53;101467.50;684362;28;23535;-66
2022/07/28 00:52:33;;;;;;;1019.47;952.58;;;;;;;16.71;51.28;101467.69;682849;28;69381;-66
2022/07/28 00:52:55;;;;;;;1026.05;958.85;;;;;;;16.71;51.61;101468.53;684440;28;22345;-66
2022/07/28 00:53:16;;;;;;;1039.97;972.00;;;;;;;16.70;51.52;101458.66;684016;28;46625;-63
2022/07/28 00:53:37;;;;;;;1040.43;972.47;;;;;;;16.73;51.29;101471.06;684059;28;21372;-65
2022/07/28 00:53:59;;;;;;;1041.47;973.47;;;;;;;16.72;51.38;101467.50;684192;28;21337;-65
2022/07/28 00:54:21;;;;;;;1038.55;970.75;;;;;;;16.72;51.45;101466.63;683059;28;69406;-65
2022/07/28 00:54:42;;;;;;;1035.97;968.28;;;;;;;16.74;51.19;101464.56;684770;28;23713;-64
2022/07/28 00:55:04;;;;;;;1030.68;963.17;;;;;;;16.75;51.41;101472.56;684619;28;22432;-64
2022/07/28 00:55:26;;;;;;;1034.38;966.75;;;;;;;16.75;51.37;101464.38;684148;28;35065;-64
2022/07/28 00:55:47;;;;;;;1042.30;974.30;;;;;;;16.75;51.27;101460.78;683650;28;46556;-64
2022/07/28 00:56:09;;;;;;;1041.85;973.80;;;;;;;16.74;51.52;101457.22;684523;28;21548;-64
2022/07/28 00:56:34;;;;;;;1035.93;968.05;;;;;;;16.71;51.20;101463.06;683120;28;44136;-64
2022/07/28 00:56:55;;;;;;;1027.60;960.10;;;;;;;16.66;51.78;101465.56;679906;28;115114;-65
2022/07/28 00:57:17;;;;;;;1034.75;966.95;;;;;;;16.65;51.71;101461.16;684083;28;21536;-66
2022/07/28 00:57:39;;;;;;;1034.05;966.35;;;;;;;16.66;51.55;101461.97;683508;28;46349;-64
2022/07/28 00:58:01;;;;;;;1036.13;968.40;;;;;;;16.65;51.71;101463.03;683377;28;46330;-65
2022/07/28 00:58:22;;;;;;;1037.15;969.33;;;;;;;16.65;51.59;101465.75;683361;28;44370;-65
2022/07/28 00:58:45;;;;;;;1035.38;967.65;;;;;;;16.63;51.95;101456.91;683927;28;22359;-65
2022/07/28 00:59:07;;;;;;;1034.00;966.35;;;;;;;16.66;51.56;101464.69;682879;28;69379;-65
2022/07/28 00:59:28;;;;;;;1035.45;967.72;;;;;;;16.67;51.46;101467.22;683561;28;45287;-65
2022/07/28 00:59:49;;;;;;;1038.40;970.60;;;;;;;16.68;51.43;101463.47;684609;28;23313;-65
2022/07/28 01:00:11;;;;;;;1035.38;967.67;;;;;;;16.68;51.62;101463.47;684032;28;23195;-65
2022/07/28 01:00:32;;;;;;;1034.07;966.38;;;;;;;16.64;51.61;101462.19;683601;28;46328;-64
2022/07/28 01:00:55;;;;;;;1038.53;970.63;;;;;;;16.63;51.33;101454.19;684400;28;21511;-65
2022/07/28 01:01:18;;;;;;;1037.53;969.67;;;;;;;16.64;51.67;101462.19;682641;28;69326;-65
2022/07/28 01:01:39;;;;;;;1038.57;970.75;;;;;;;16.65;51.47;101463.88;681820;28;92258;-64
2022/07/28 01:02:02;;;;;;;1037.95;970.15;;;;;;;16.65;51.37;101461.16;684316;28;22416;-64
2022/07/28 01:02:23;;;;;;;1041.03;973.10;;;;;;;16.64;51.38;101462.19;682727;28;69640;-64
2022/07/28 01:02:45;;;;;;;1038.50;970.63;;;;;;;16.63;51.44;101463.22;684447;28;21351;-64
2022/07/28 01:03:07;;;;;;;1037.63;969.83;;;;;;;16.63;51.77;101470.56;683882;28;44206;-64
2022/07/28 01:03:28;;;;;;;1038.78;970.92;;;;;;;16.62;51.27;101468.88;684322;28;21544;-64
2022/07/28 01:03:52;;;;;;;1037.65;969.75;;;;;;;16.61;51.34;101465.31;683387;28;44359;-65
2022/07/28 01:04:14;;;;;;;1033.60;966.00;;;;;;;16.60;51.69;101462.78;681929;28;92009;-64
2022/07/28 01:04:35;;;;;;;1035.55;967.75;;;;;;;16.58;51.49;101461.09;684444;28;45162;-64
2022/07/28 01:04:56;;;;;;;1037.97;970.08;;;;;;;16.56;51.87;101471.34;684340;28;22426;-64
2022/07/28 01:05:18;;;;;;;1035.43;967.53;;;;;;;16.55;51.57;101469.69;684112;28;22362;-65
2022/07/28 01:05:56;;;;;;;1042.53;974.47;;;;;;;16.53;52.03;101462.72;683633;28;46056;-64
2022/07/28 01:06:34;;;;;;;1035.75;967.95;;;;;;;16.47;52.08;101469.81;680383;28;136013;-63
2022/07/28 01:07:07;;;;;;;1046.60;978.35;;;;;;;16.50;52.02;101468.59;678322;28;155747;-64
2022/07/28 01:07:34;;;;;;;1048.95;980.55;;;;;;;16.45;51.81;101469.19;679687;28;157236;-64
2022/07/28 01:08:09;;;;;;;1049.97;981.38;;;;;;;16.45;51.76;101469.19;681906;28;99479;-64
2022/07/28 01:08:39;;;;;;;1051.20;982.60;;;;;;;16.51;51.83;101478.47;680413;28;138111;-64
2022/07/28 01:09:06;;;;;;;1052.78;984.17;;;;;;;16.48;52.43;101468.78;680493;28;137508;-65
2022/07/28 01:09:41;;;;;;;1052.88;984.28;;;;;;;16.48;51.91;101471.50;680680;28;136265;-64
2022/07/28 01:10:05;;;;;;;1045.95;977.65;;;;;;;16.48;51.93;101476.97;680495;28;137856;-65
2022/07/28 01:10:33;;;;;;;1046.50;978.17;;;;;;;16.45;52.27;101477.34;681311;28;114965;-65
2022/07/28 01:10:59;;;;;;;1059.00;990.00;;;;;;;16.43;51.97;101475.88;680335;28;137759;-65
2022/07/28 01:11:28;;;;;;;1054.97;986.28;;;;;;;16.37;52.13;101464.72;681297;28;115055;-65
2022/07/28 01:11:54;;;;;;;1050.68;982.08;;;;;;;16.38;52.39;101476.47;678962;28;156345;-64
2022/07/28 01:12:25;;;;;;;1055.15;986.35;;;;;;;16.37;52.23;101470.16;680902;28;137151;-65
2022/07/28 01:12:50;;;;;;;1053.78;985.17;;;;;;;16.36;52.22;101473.94;679978;28;158947;-65
2022/07/28 01:13:16;;;;;;;1052.03;983.42;;;;;;;16.34;52.32;101475.19;681205;28;137906;-65
2022/07/28 01:13:38;;;;;;;1047.82;979.50;;;;;;;16.31;52.53;101479.13;680695;28;137154;-65
2022/07/28 01:14:07;;;;;;;1053.03;984.47;;;;;;;16.31;52.39;101461.94;683196;28;68358;-65
2022/07/28 01:14:35;;;;;;;1052.23;983.60;;;;;;;16.29;52.79;101467.59;680229;28;137941;-65
2022/07/28 01:15:01;;;;;;;1059.10;990.20;;;;;;;16.25;53.15;101469.00;679934;28;159384;-66
2022/07/28 01:15:26;;;;;;;1055.93;987.20;;;;;;;16.24;52.77;101470.06;680612;28;138785;-66
2022/07/28 01:15:53;;;;;;;1059.68;990.70;;;;;;;16.27;53.06;101468.81;681268;28;114934;-66
2022/07/28 01:16:14;;;;;;;1059.03;990.03;;;;;;;16.28;53.13;101467.78;680149;28;160871;-64
2022/07/28 01:16:43;;;;;;;1059.18;990.17;;;;;;;16.30;52.95;101465.69;683415;28;46384;-64
2022/07/28 01:17:09;;;;;;;1057.25;988.25;;;;;;;16.29;53.00;101466.75;679940;28;136207;-64
2022/07/28 01:17:38;;;;;;;1055.10;986.30;;;;;;;16.31;53.05;101472.84;680685;28;138096;-64
2022/07/28 01:18:05;;;;;;;1058.20;989.35;;;;;;;16.32;52.88;101472.66;680576;28;137562;-64
2022/07/28 01:18:34;;;;;;;1056.97;988.17;;;;;;;16.32;53.12;101469.09;679804;28;136260;-64
2022/07/28 01:19:01;;;;;;;1051.45;982.83;;;;;;;16.30;52.90;101463.84;679795;28;138541;-65
2022/07/28 01:19:35;;;;;;;1053.75;985.13;;;;;;;16.34;52.78;101469.72;677604;29;137918;-64
2022/07/28 01:20:04;;;;;;;1053.68;984.97;;;;;;;16.34;52.74;101472.44;677479;28;137705;-65
2022/07/28 01:20:32;;;;;;;1052.93;984.30;;;;;;;16.33;53.03;101468.03;677896;29;137582;-65
2022/07/28 01:20:57;;;;;;;1047.18;978.78;;;;;;;16.34;53.14;101469.72;679437;28;136232;-65
2022/07/28 01:21:22;;;;;;;1048.45;980.15;;;;;;;16.33;52.82;101468.88;680730;28;115873;-64
2022/07/28 01:21:46;;;;;;;1046.70;978.30;;;;;;;16.32;53.03;101474.53;679851;28;135835;-63
2022/07/28 01:22:13;;;;;;;1048.13;979.80;;;;;;;16.30;52.65;101466.56;682817;28;92505;-64
2022/07/28 01:22:37;;;;;;;1046.32;978.03;;;;;;;16.31;53.12;101464.66;680859;28;138021;-64
2022/07/28 01:23:27;;;;;;;1050.15;981.70;;;;;;;16.30;52.91;101469.28;681038;28;114879;-65
2022/07/28 01:23:57;;;;;;;1044.72;976.50;;;;;;;16.28;53.08;101467.78;680363;28;137529;-65
2022/07/28 01:24:22;;;;;;;1044.43;976.17;;;;;;;16.25;53.43;101474.47;677641;29;140096;-64
2022/07/28 01:24:50;;;;;;;1045.32;977.03;;;;;;;16.23;53.32;101470.28;678224;28;115205;-64
2022/07/28 01:25:19;;;;;;;1042.80;974.70;;;;;;;16.19;53.02;101476.13;677807;28;138290;-64
2022/07/28 01:25:47;;;;;;;1036.72;969.08;;;;;;;16.17;53.46;101477.34;676753;28;159155;-65
2022/07/28 01:26:20;;;;;;;1036.55;968.78;;;;;;;16.15;53.39;101477.53;678106;28;138044;-65
2022/07/28 01:26:54;;;;;;;1036.10;968.50;;;;;;;16.14;53.12;101464.09;679128;28;157107;-65
2022/07/28 01:27:25;;;;;;;1024.20;956.90;;;;;;;16.14;53.19;101470.38;680618;28;136086;-64
2022/07/28 01:27:53;;;;;;;1032.80;965.30;;;;;;;16.13;53.31;101476.91;680617;28;137356;-65
2022/07/28 01:28:23;;;;;;;1041.78;973.80;;;;;;;16.12;53.33;101468.91;680690;28;137692;-65
2022/07/28 01:28:59;;;;;;;1034.50;967.00;;;;;;;16.12;53.54;101472.47;680478;28;138870;-65
2022/07/28 01:29:35;;;;;;;1034.53;967.00;;;;;;;16.10;53.70;101473.72;677468;29;137613;-65
2022/07/28 01:30:06;;;;;;;1037.22;969.45;;;;;;;16.10;53.79;101468.28;677755;28;137335;-66
2022/07/28 01:30:33;;;;;;;1027.43;960.22;;;;;;;16.10;53.41;101469.09;677682;29;137806;-66
2022/07/28 01:30:56;;;;;;;1027.43;960.17;;;;;;;16.09;53.81;101472.88;677244;29;137707;-66
2022/07/28 01:31:22;;;;;;;1031.28;963.97;;;;;;;16.07;53.59;101460.50;682154;28;69375;-66
2022/07/28 01:31:47;;;;;;;1031.97;964.58;;;;;;;16.09;54.12;101470.13;679403;28;156602;-64
2022/07/28 01:32:14;;;;;;;1034.47;966.92;;;;;;;16.03;54.07;101470.91;681907;28;115038;-65
2022/07/28 01:32:39;;;;;;;1042.55;974.45;;;;;;;16.06;54.23;101466.97;680233;28;138112;-65
2022/07/28 01:33:03;;;;;;;1042.20;974.30;;;;;;;16.09;53.84;101469.31;680874;28;122354;-65
2022/07/28 01:33:30;;;;;;;1045.57;977.60;;;;;;;16.07;54.02;101464.06;681975;28;92305;-64
2022/07/28 01:33:56;;;;;;;1044.90;976.80;;;;;;;16.12;53.67;101466.19;680315;28;136366;-64
2022/07/28 01:34:24;;;;;;;1038.85;971.15;;;;;;;16.14;53.94;101473.09;680992;28;114838;-65
2022/07/28 01:34:50;;;;;;;1039.15;971.35;;;;;;;16.14;53.91;101467.66;680324;28;136785;-65
2022/07/28 01:35:15;;;;;;;1038.53;970.72;;;;;;;16.15;53.91;101471.25;680108;28;137925;-64
2022/07/28 01:35:41;;;;;;;1031.10;963.80;;;;;;;16.12;53.52;101468.91;681828;28;92394;-65
2022/07/28 01:36:07;;;;;;;1026.18;959.10;;;;;;;16.11;53.42;101468.09;680374;28;137645;-65
2022/07/28 01:36:33;;;;;;;1023.33;956.42;;;;;;;16.10;53.41;101476.44;679777;28;136293;-64
2022/07/28 01:36:57;;;;;;;1030.10;962.90;;;;;;;16.08;53.64;101471.19;679563;28;138088;-64
2022/07/28 01:37:23;;;;;;;1024.88;957.97;;;;;;;16.04;53.88;101470.72;681823;28;92028;-64
2022/07/28 01:37:46;;;;;;;1025.60;958.53;;;;;;;15.99;53.93;101473.19;680957;28;114925;-64
2022/07/28 01:38:10;;;;;;;1030.70;963.30;;;;;;;16.02;53.81;101474.69;681904;28;92127;-64
2022/07/28 01:38:33;;;;;;;1047.27;979.13;;;;;;;16.01;53.98;101475.72;681965;28;92075;-64
2022/07/28 01:38:55;;;;;;;1041.63;973.67;;;;;;;15.99;53.90;101475.09;681723;28;90758;-65
2022/07/28 01:39:18;;;;;;;1039.38;971.65;;;;;;;15.97;53.71;101471.69;685023;28;46293;-65
2022/07/28 01:39:41;;;;;;;1040.15;972.47;;;;;;;15.94;53.75;101472.09;683274;28;46365;-65
2022/07/28 01:40:06;;;;;;;1028.13;961.03;;;;;;;15.94;54.14;101475.66;682043;28;92070;-65
2022/07/28 01:40:31;;;;;;;1041.80;973.90;;;;;;;15.92;54.11;101466.00;681564;28;97273;-64
2022/07/28 01:40:54;;;;;;;1054.90;986.15;;;;;;;15.93;53.96;101479.44;681584;28;92235;-65
2022/07/28 01:41:20;;;;;;;1054.28;985.67;;;;;;;15.92;53.98;101476.91;682657;28;65408;-64
2022/07/28 01:41:42;;;;;;;1056.88;988.13;;;;;;;15.84;53.97;101464.25;678754;28;137677;-64
2022/07/28 01:42:05;;;;;;;1063.85;994.63;;;;;;;15.90;54.30;101487.16;681754;28;69221;-64
2022/07/28 01:42:39;;;;;;;1059.55;990.47;;;;;;;15.89;54.29;101474.56;683195;28;44093;-64
2022/07/28 01:43:03;;;;;;;1066.32;997.03;;;;;;;15.90;54.48;101476.25;680313;28;136906;-64
2022/07/28 01:43:27;;;;;;;1064.55;995.33;;;;;;;15.90;54.10;101481.69;682466;28;66293;-65
2022/07/28 01:43:54;;;;;;;1058.97;989.97;;;;;;;15.91;54.32;101481.50;680812;28;115086;-65
2022/07/28 01:44:19;;;;;;;1061.72;992.63;;;;;;;15.88;54.33;101476.44;680057;28;137644;-65
2022/07/28 01:44:43;;;;;;;1065.72;996.42;;;;;;;15.85;54.29;101474.13;681052;28;115349;-65
2022/07/28 01:45:07;;;;;;;1058.70;989.80;;;;;;;15.84;54.55;101472.41;681732;28;114910;-65